Southwester — E5U3142 — position and weather

sailwx.info

Track history (hours):
 
Tides and Currents Weather Stations Pressure Air Temp Water Temp Dewpoint Dewpoint Depression Visibility Wind Speed Wind Dir Waves Ship Positions

Southwester

Last reported at 2017-Nov-23 00:21 UTC. Time now 2017-Nov-23 09:29 UTC.
Position N 35°60' W 005°12'.

Length 100 m; draft 6.5 m.

Type: Cargo ship. MMSI: 518100201.

Date/timePositionNaut miles runAvg speedWind from/ knotsBaromVisibWave heightAir tempDewpointWater temp
2017-Nov-23 00:21N 35°60' W 005°12'411.5
2017-Nov-23 00:00N 35°59' W 005°17'611.6
2017-Nov-22 23:30N 35°58' W 005°24'611.6
2017-Nov-22 23:00N 35°57' W 005°31'  
2017-Nov-15 23:14N 39°47' W 009°21'312.4
2017-Nov-15 23:00N 39°45' W 009°23'712.5
2017-Nov-15 22:25N 39°40' W 009°30'512.5
2017-Nov-15 22:00N 39°36' W 009°35'612.6
2017-Nov-15 21:30N 39°31' W 009°40'611.8
2017-Nov-15 21:00N 39°26' W 009°43'612.4
2017-Nov-15 20:30N 39°20' W 009°44'612.6
2017-Nov-15 20:00N 39°14' W 009°46'612.4
2017-Nov-15 19:30N 39°08' W 009°48'612.1
2017-Nov-15 19:00N 39°02' W 009°49'612.3
2017-Nov-15 18:30N 38°56' W 009°50'612.4
2017-Nov-15 18:00N 38°49' W 009°51'612.4
2017-Nov-15 17:30N 38°43' W 009°51'612.3
2017-Nov-15 17:00N 38°37' W 009°49'612.3
2017-Nov-15 16:30N 38°31' W 009°48'612.5
2017-Nov-15 16:00N 38°25' W 009°46'612.2
2017-Nov-15 15:30N 38°19' W 009°44'510.8
2017-Nov-15 15:00N 38°14' W 009°43'611.3
2017-Nov-15 14:30N 38°08' W 009°41'612.0
2017-Nov-15 14:00N 38°02' W 009°40'1112.2
2017-Nov-15 13:06N 37°52' W 009°36'111.8
2017-Nov-15 13:00N 37°51' W 009°36'611.8
2017-Nov-15 12:30N 37°45' W 009°34'612.1
2017-Nov-15 12:00N 37°39' W 009°33'712.4
2017-Nov-15 11:27N 37°32' W 009°31'512.0
2017-Nov-15 11:00N 37°27' W 009°29'3711.7
2017-Nov-15 07:49N 36°51' W 009°16'411.8
2017-Nov-15 07:27N 36°48' W 009°13'19212.4
2017-Nov-14 16:01N 35°59' W 005°23'0 9.8
2017-Nov-14 16:00N 35°59' W 005°22'510.6
2017-Nov-14 15:30N 35°54' W 005°19'1 1.2
2017-Nov-14 14:58N 35°54' W 005°18'0 0.0
2017-Nov-14 14:28N 35°54' W 005°18'0 0.0
2017-Nov-14 13:58N 35°54' W 005°18'0 0.0
2017-Nov-14 13:28N 35°54' W 005°18'0 0.0
2017-Nov-14 12:58N 35°54' W 005°18'0 0.0
2017-Nov-14 12:28N 35°54' W 005°18'0 0.0
2017-Nov-14 11:58N 35°54' W 005°18'0 0.0
2017-Nov-14 11:28N 35°54' W 005°18'0 0.0
2017-Nov-14 10:58N 35°54' W 005°18'0 0.0
2017-Nov-14 10:25N 35°54' W 005°18'0 0.0
2017-Nov-14 09:58N 35°54' W 005°18'0 0.0
2017-Nov-14 09:28N 35°54' W 005°18'0 0.0
2017-Nov-14 08:58N 35°54' W 005°18'0 0.6
2017-Nov-14 08:30N 35°54' W 005°19'2 4.8
2017-Nov-14 08:00N 35°56' W 005°16'0 0.9
2017-Nov-14 07:31N 35°55' W 005°17'1 2.1
2017-Nov-14 07:00N 35°55' W 005°18'1 2.5
2017-Nov-14 06:31N 35°55' W 005°17'  
Track history (hours):
 
Tides and Currents Weather Stations Pressure Air Temp Water Temp Dewpoint Dewpoint Depression Visibility Wind Speed Wind Dir Waves Ship Positions

Southwester

Last reported at 2017-Nov-23 00:21 UTC. Time now 2017-Nov-23 09:29 UTC.
Position N 35°60' W 005°12'.

Length 100 m; draft 6.5 m.

Type: Cargo ship. MMSI: 518100201.

Date/timePositionNaut miles runAvg speedWind from/ knotsBaromVisibWave heightAir tempDewpointWater temp
2017-Nov-23 00:21N 35°60' W 005°12'411.5
2017-Nov-23 00:00N 35°59' W 005°17'611.6
2017-Nov-22 23:30N 35°58' W 005°24'611.6
2017-Nov-22 23:00N 35°57' W 005°31'  
2017-Nov-15 23:14N 39°47' W 009°21'312.4
2017-Nov-15 23:00N 39°45' W 009°23'712.5
2017-Nov-15 22:25N 39°40' W 009°30'512.5
2017-Nov-15 22:00N 39°36' W 009°35'612.6
2017-Nov-15 21:30N 39°31' W 009°40'611.8
2017-Nov-15 21:00N 39°26' W 009°43'612.4
2017-Nov-15 20:30N 39°20' W 009°44'612.6
2017-Nov-15 20:00N 39°14' W 009°46'612.4
2017-Nov-15 19:30N 39°08' W 009°48'612.1
2017-Nov-15 19:00N 39°02' W 009°49'612.3
2017-Nov-15 18:30N 38°56' W 009°50'612.4
2017-Nov-15 18:00N 38°49' W 009°51'612.4
2017-Nov-15 17:30N 38°43' W 009°51'612.3
2017-Nov-15 17:00N 38°37' W 009°49'612.3
2017-Nov-15 16:30N 38°31' W 009°48'612.5
2017-Nov-15 16:00N 38°25' W 009°46'612.2
2017-Nov-15 15:30N 38°19' W 009°44'510.8
2017-Nov-15 15:00N 38°14' W 009°43'611.3
2017-Nov-15 14:30N 38°08' W 009°41'612.0
2017-Nov-15 14:00N 38°02' W 009°40'1112.2
2017-Nov-15 13:06N 37°52' W 009°36'111.8
2017-Nov-15 13:00N 37°51' W 009°36'611.8
2017-Nov-15 12:30N 37°45' W 009°34'612.1
2017-Nov-15 12:00N 37°39' W 009°33'712.4
2017-Nov-15 11:27N 37°32' W 009°31'512.0
2017-Nov-15 11:00N 37°27' W 009°29'3711.7
2017-Nov-15 07:49N 36°51' W 009°16'411.8
2017-Nov-15 07:27N 36°48' W 009°13'19212.4
2017-Nov-14 16:01N 35°59' W 005°23'0 9.8
2017-Nov-14 16:00N 35°59' W 005°22'510.6
2017-Nov-14 15:30N 35°54' W 005°19'1 1.2
2017-Nov-14 14:58N 35°54' W 005°18'0 0.0
2017-Nov-14 14:28N 35°54' W 005°18'0 0.0
2017-Nov-14 13:58N 35°54' W 005°18'0 0.0
2017-Nov-14 13:28N 35°54' W 005°18'0 0.0
2017-Nov-14 12:58N 35°54' W 005°18'0 0.0
2017-Nov-14 12:28N 35°54' W 005°18'0 0.0
2017-Nov-14 11:58N 35°54' W 005°18'0 0.0
2017-Nov-14 11:28N 35°54' W 005°18'0 0.0
2017-Nov-14 10:58N 35°54' W 005°18'0 0.0
2017-Nov-14 10:25N 35°54' W 005°18'0 0.0
2017-Nov-14 09:58N 35°54' W 005°18'0 0.0
2017-Nov-14 09:28N 35°54' W 005°18'0 0.0
2017-Nov-14 08:58N 35°54' W 005°18'0 0.6
2017-Nov-14 08:30N 35°54' W 005°19'2 4.8
2017-Nov-14 08:00N 35°56' W 005°16'0 0.9
2017-Nov-14 07:31N 35°55' W 005°17'1 2.1
2017-Nov-14 07:00N 35°55' W 005°18'1 2.5
2017-Nov-14 06:31N 35°55' W 005°17'  

Dump ship's entire track history